Ellery, Illinois
Current Conditions -  °F | °C
As of 3:35 AM on Saturday 25 Oct 2014 (Local Time) from KFWC Reporting Station
Overcast Overcast  
Wind Chill: 57°   Ceiling: 4200
Heat Index: 57°   Visibility: 10mi
Dew Point: 54°   Wind: 3mph
Humidity: 88%   Direction: 200°SSW
Pressure: 29.99"   Gusts: NA
Location:  38.35°N, 88.15°W
Report Text: KFWC 250835Z AUTO 20003KT 10SM OVC042 14/12 A2999 RMK AO1 T01400120
Loading
Personal Weather Stations






























Interactive Weather Map
Tropical Storm Tracking
New forecast layout! Learn more

10-Day Weather Forecast

Advertisements
Track Severe Weather on mobile